Aérodrome :
LOGIN :

S'inscrire | Disclaimer

   EN    FR    IT 

 










Légende :    VFR   VFR Marginal   IFR   IFR Intensif   IFR Très Intensif
Visi : 
Plafond : 
>= 8 km
>= 3000ft
5 à 8 km
1000 à 3000 ft
1500m à 5 km
500 à 1000 ft
800 à 1500m
200 à 500 ft
< 800m
< 200 ft
Symboles :   Orages  Brouillard  Fortes neiges  Fortes précipitations  Vent > 20 kt
SIGMETs :   Divers  Orages  Givrage  Turbulence  Onde Orograph.  Cendres Volcan.







- Altitude de l'aérodrome : 885 ft
- Code IATA : BAS
- Voir les cartes d'approche


LFSB - Bale-Mulhouse

DERNIER METAR :
  • 171700Z 29006KT 260V330 CAVOK 27/15 Q1018 NOSIG

METARs EXPIRÉS :
  • 171630Z 29006KT 260V340 CAVOK 28/16 Q1018 NOSIG
  • 171600Z 29006KT CAVOK 29/16 Q1018 NOSIG
  • 171530Z 28007KT 250V320 9999 FEW053 SCT250 29/15 Q1018 NOSIG
  • 171500Z 29007KT 250V320 9999 FEW053 29/16 Q1018 NOSIG
  • 171430Z 28007KT 250V330 9999 FEW050 29/16 Q1018 NOSIG

TAF TAF LFSB
Valide du 17 à 12h jusqu'au 18 à 12h UTC


171100Z 1712/1812 28008KT 9999 FEW040 SCT150
TEMPO 1712/1716 FEW050TCU
BECMG 1716/1718 CAVOK
TEMPO 1810/1812 FEW040CB
Météo : +33 3 89 90 31 11
Pas de NOTAMs connus pour ce terrain.



MET'MAP, la Météo Aéronautique d'un coup d'oeil ! - Copyright ORBIFLY Décembre 2007 - Disclaimer

ORBIFLY MET'MAP TEAM :

Programmation & Développement : Alexandra Zaïnal
Conception & Développement : Baudouin d'Aumeries
Co-Programmation & Développement : Marc-Olivier Méhu
Soutien technique & logistique : Manuel Goepfert

Contact : metmap@orbifly.com




SOURCES & CREDITS :

   NOAA